Latest Weather Observations for Moomba Airport

IDS60801

Issued at 8:05 pm CST Thursday 24 July 2014 (issued every 30 minutes, with the page automatically refreshed every 10 minutes)

About weather observations | Map of weather stations | Latest weather observations for SA | Other Formats
Station Details ID: 017123 Name: MOOMBA AIRPORT Lat: -28.10 Lon: 140.20 Height: 37.8 m
Data from the previous 72 hours. | See also: Recent months at Moomba Airport
Date/Time
CST
Temp
°C
App
Temp
°C
Dew
Point
Rel
Hum
%
Delta-T
°C
Wind Press
QNH
hPa
Press
MSL
hPa
Rain
since 9 am
mm
Dir
 
Spd
km/h
Gust
km/h
Spd
kts
Gust
kts
24/08:00pm 14.9 12.0 2.8 44 5.4 WSW 7 9 4 5 1017.0 - 0.0
24/07:30pm 15.6 12.7 2.7 42 5.8 WSW 7 7 4 4 1016.9 - 0.0
24/07:00pm 16.3 13.4 2.7 40 6.2 WNW 7 7 4 4 1016.8 - 0.0
24/06:30pm 16.9 14.2 2.9 39 6.4 W 6 7 3 4 1016.4 - 0.0
24/06:00pm 18.4 15.2 3.1 36 7.1 WSW 9 9 5 5 1016.0 1016.1 0.0
24/05:30pm 20.0 16.5 3.7 34 7.8 W 11 15 6 8 1015.5 - 0.0
24/05:00pm 20.7 17.6 3.4 32 8.2 W 9 15 5 8 1015.1 - 0.0
24/04:30pm 21.1 18.0 3.8 32 8.3 W 9 13 5 7 1015.0 - 0.0
24/04:00pm 21.2 17.5 4.3 33 8.2 WSW 13 19 7 10 1014.9 - 0.0
24/03:30pm 21.2 17.5 4.3 33 8.2 W 13 19 7 10 1014.7 - 0.0
24/03:00pm 21.5 18.1 4.1 32 8.4 W 11 17 6 9 1014.7 1014.7 0.0
24/02:30pm 20.7 16.9 3.9 33 8.1 W 13 20 7 11 1014.7 - 0.0
24/02:00pm 20.8 17.9 4.4 34 8.0 W 9 17 5 9 1014.9 - 0.0
24/01:30pm 20.1 16.7 4.2 35 7.7 W 11 19 6 10 1015.0 - 0.0
24/01:00pm 19.6 16.3 4.5 37 7.3 W 11 19 6 10 1015.4 - 0.0
24/12:30pm 19.4 15.8 5.1 39 7.0 WSW 13 20 7 11 1015.7 - 0.0
24/12:00pm 18.8 16.4 5.3 41 6.6 WSW 7 15 4 8 1016.2 1016.3 0.0
24/11:30am 17.8 14.5 4.4 41 6.4 SW 11 15 6 8 1016.6 - 0.0
24/11:00am 17.4 13.7 4.7 43 6.0 SSW 13 17 7 9 1016.9 - 0.0
24/10:30am 16.5 13.2 4.5 45 5.7 SSW 11 19 6 10 1017.1 - 0.0
24/10:00am 16.0 12.0 4.7 47 5.3 SSW 15 22 8 12 1017.2 - 0.0
24/09:30am 14.9 10.7 4.0 48 5.0 SW 15 20 8 11 1017.1 - 0.0
24/09:00am 13.7 9.8 3.2 49 4.7 SW 13 19 7 10 1016.7 1016.8 0.0
24/08:30am 11.9 8.4 1.0 47 4.6 SW 9 13 5 7 1016.5 - 0.0
24/08:00am 10.6 7.3 -0.2 47 4.4 WSW 7 9 4 5 1016.3 - 0.0
24/07:30am 8.4 6.1 -2.2 47 4.0 CALM 0 0 0 0 1016.0 - 0.0
24/07:00am 7.2 4.4 -3.1 48 3.7 W 2 6 1 3 1015.6 - 0.0
24/06:30am 7.8 4.1 -3.1 46 4.0 W 7 9 4 5 1015.4 - 0.0
24/06:00am 9.1 4.3 -2.8 43 4.4 W 13 13 7 7 1015.2 1015.2 0.0
24/05:30am 10.2 5.0 -2.4 41 4.8 W 15 17 8 9 1014.9 - 0.0
24/05:00am 10.9 5.7 -2.5 39 5.1 WNW 15 17 8 9 1014.7 - 0.0
24/04:30am 10.1 4.8 -3.2 39 5.0 NW 15 17 8 9 1014.5 - 0.0
24/04:00am 9.7 4.4 -3.2 40 4.8 NW 15 19 8 10 1014.4 - 0.0
24/03:30am 9.7 3.8 -2.6 42 4.6 NW 19 20 10 11 1014.2 - 0.0
24/03:00am 9.0 4.1 -3.2 42 4.5 NW 13 17 7 9 1014.2 1014.2 0.0
24/02:30am 9.5 4.3 -3.1 41 4.7 N 15 19 8 10 1013.9 - 0.0
24/02:00am 10.7 5.6 -2.3 40 5.0 N 15 17 8 9 1013.8 - 0.0
24/01:30am 11.0 5.9 -2.1 40 5.1 N 15 17 8 9 1013.8 - 0.0
24/01:00am 10.4 5.9 -2.9 39 5.0 N 11 13 6 7 1013.9 - 0.0
24/12:30am 10.5 5.6 -3.2 38 5.1 NNE 13 15 7 8 1013.9 - 0.0
24/12:00am 10.9 5.7 -2.5 39 5.1 NNE 15 17 8 9 1014.0 1014.0 0.0
 
Date/Time
CST
Temp
°C
App
Temp
°C
Dew
Point
Rel
Hum
%
Delta-T
°C
Wind Press
QNH
hPa
Press
MSL
hPa
Rain
since 9 am
mm
Dir
 
Spd
km/h
Gust
km/h
Spd
kts
Gust
kts
23/11:30pm 11.5 6.3 -2.7 37 5.5 NNE 15 17 8 9 1014.2 - 0.0
23/11:00pm 11.9 6.8 -2.3 37 5.5 N 15 17 8 9 1014.5 - 0.0
23/10:30pm 12.0 6.4 -2.6 36 5.6 NNE 17 19 9 10 1014.8 - 0.0
23/10:00pm 12.3 7.5 -2.7 35 5.8 NNE 13 15 7 8 1014.6 - 0.0
23/09:30pm 13.2 8.0 -2.7 33 6.2 NNE 15 17 8 9 1014.8 - 0.0
23/09:00pm 13.8 8.7 -2.2 33 6.4 NNE 15 15 8 8 1015.1 1015.1 0.0
23/08:30pm 14.5 10.9 -2.4 31 6.7 NNE 7 9 4 5 1015.0 - 0.0
23/08:00pm 15.0 10.6 -2.4 30 7.0 NE 11 17 6 9 1014.4 - 0.0
23/07:30pm 13.4 8.5 -3.4 31 6.5 NE 13 19 7 10 1014.0 - 0.0
23/07:00pm 13.1 8.1 -4.1 30 6.5 NNE 13 15 7 8 1014.3 - 0.0
23/06:30pm 14.5 9.9 -3.8 28 7.1 NNE 11 13 6 7 1014.4 - 0.0
23/06:00pm 16.4 11.5 -3.7 25 8.0 N 13 13 7 7 1014.5 1014.5 0.0
23/05:30pm 18.9 13.7 -2.7 23 9.0 NNE 15 19 8 10 1014.2 - 0.0
23/05:00pm 19.9 14.4 -2.4 22 9.4 N 17 20 9 11 1014.4 - 0.0
23/04:30pm 19.8 13.7 -2.5 22 9.4 NNE 20 24 11 13 1014.3 - 0.0
23/04:00pm 20.2 14.1 -2.2 22 9.5 NNE 20 28 11 15 1014.6 - 0.0
23/03:30pm 20.5 14.4 -2.5 21 9.7 NNE 20 26 11 14 1014.5 - 0.0
23/03:00pm 20.4 14.9 -2.0 22 9.5 N 17 20 9 11 1015.2 1015.2 0.0
23/02:30pm 20.4 14.3 -2.0 22 9.6 NNE 20 24 11 13 1015.2 - 0.0
23/02:00pm 20.2 13.7 -2.8 21 9.6 NNE 22 28 12 15 1015.4 - 0.0
23/01:30pm 20.4 13.9 -2.6 21 9.7 NNE 22 32 12 17 1015.6 - 0.0
23/01:00pm 20.4 13.1 -2.6 21 9.7 NNE 26 32 14 17 1015.9 - 0.0
23/12:30pm 20.4 13.1 -2.6 21 9.7 NNE 26 30 14 16 1016.5 - 0.0
23/12:00pm 20.6 13.0 -1.8 22 9.6 NNE 28 35 15 19 1017.1 1017.2 0.0
23/11:30am 19.9 12.4 -1.2 24 9.1 NNE 28 35 15 19 1017.5 - 0.0
23/11:00am 19.0 12.3 -0.9 26 8.6 NNE 24 32 13 17 1018.2 - 0.0
23/10:30am 18.1 11.8 -1.2 27 8.2 NNE 22 28 12 15 1019.2 - 0.0
23/10:00am 16.9 10.5 -1.7 28 7.7 NNE 22 30 12 16 1019.2 - 0.0
23/09:30am 16.2 10.4 -1.8 29 7.4 NE 19 26 10 14 1019.5 - 0.0
23/09:00am 15.7 9.6 -2.3 29 7.3 NE 20 28 11 15 1019.6 1019.7 0.0
23/08:30am 14.9 8.8 -2.1 31 6.9 NE 20 24 11 13 1019.3 - 0.0
23/08:00am 13.4 9.4 -2.5 33 6.3 NE 9 13 5 7 1019.5 - 0.0
23/07:30am 12.6 7.8 -2.8 34 6.0 NE 13 17 7 9 1019.5 - 0.0
23/07:00am 12.8 7.6 -2.6 34 6.0 NE 15 17 8 9 1019.5 - 0.0
23/06:30am 12.4 7.6 -2.6 35 5.8 NE 13 13 7 7 1019.7 - 0.0
23/06:00am 12.0 7.9 -3.4 34 5.8 ENE 9 11 5 6 1019.2 1019.3 0.0
23/05:30am 12.0 8.2 -3.4 34 5.9 NE 7 11 4 6 1019.1 - 0.0
23/05:00am 11.7 7.5 -4.0 33 5.9 ENE 9 11 5 6 1018.9 - 0.0
23/04:30am 11.9 7.7 -3.8 33 5.9 ENE 9 9 5 5 1019.2 - 0.0
23/04:00am 12.1 7.9 -3.7 33 6.0 NE 9 11 5 6 1019.4 - 0.0
23/03:30am 12.1 7.9 -4.1 32 6.1 ENE 9 11 5 6 1019.4 - 0.0
23/03:00am 12.6 8.4 -3.6 32 6.1 ENE 9 13 5 7 1019.5 1019.6 0.0
23/02:30am 12.7 8.5 -4.0 31 6.3 ENE 9 11 5 6 1019.5 - 0.0
23/02:00am 12.7 8.1 -4.4 30 6.4 E 11 13 6 7 1019.8 - 0.0
23/01:30am 13.1 8.1 -4.1 30 6.5 E 13 15 7 8 1019.9 - 0.0
23/01:00am 12.8 8.6 -4.3 30 6.4 E 9 11 5 6 1020.6 - 0.0
23/12:30am 13.0 9.2 -4.1 30 6.5 E 7 9 4 5 1020.7 - 0.0
23/12:00am 13.4 8.8 -3.8 30 6.6 E 11 15 6 8 1020.6 1020.7 0.0
 
Date/Time
CST
Temp
°C
App
Temp
°C
Dew
Point
Rel
Hum
%
Delta-T
°C
Wind Press
QNH
hPa
Press
MSL
hPa
Rain
since 9 am
mm
Dir
 
Spd
km/h
Gust
km/h
Spd
kts
Gust
kts
22/11:30pm 13.7 8.8 -3.5 30 6.6 ESE 13 13 7 7 1021.0 - 0.0
22/11:00pm 13.7 8.8 -3.5 30 6.6 E 13 15 7 8 1020.8 - 0.0
22/10:30pm 13.1 8.5 -4.5 29 6.6 E 11 13 6 7 1020.9 - 0.0
22/10:00pm 13.3 8.2 -4.8 28 6.8 E 13 15 7 8 1020.6 - 0.0
22/09:30pm 13.5 8.8 -5.1 27 6.9 E 11 13 6 7 1020.8 - 0.0
22/09:00pm 13.8 9.1 -5.3 26 7.1 E 11 13 6 7 1020.7 1020.8 0.0
22/08:30pm 14.4 9.3 -4.8 26 7.3 E 13 15 7 8 1020.5 - 0.0
22/08:00pm 14.5 9.8 -4.7 26 7.3 E 11 13 6 7 1020.7 - 0.0
22/07:30pm 15.1 10.9 -4.2 26 7.5 E 9 13 5 7 1020.8 - 0.0
22/07:00pm 15.3 11.0 -4.6 25 7.6 E 9 11 5 6 1020.2 - 0.0
22/06:30pm 16.2 11.9 -4.4 24 8.0 ESE 9 11 5 6 1020.0 - 0.0
22/06:00pm 17.7 13.1 -4.3 22 8.7 ESE 11 13 6 7 1019.8 1019.9 0.0
22/05:30pm 19.7 15.1 -3.9 20 9.6 ESE 11 13 6 7 1019.7 - 0.0
22/05:00pm 21.0 15.7 -3.5 19 10.2 E 15 19 8 10 1019.3 - 0.0
22/04:30pm 21.8 16.1 -3.5 18 10.6 ESE 17 22 9 12 1019.4 - 0.0
22/04:00pm 21.9 16.5 -4.2 17 10.8 ESE 15 20 8 11 1019.3 - 0.0
22/03:30pm 21.9 16.9 -4.2 17 10.8 ESE 13 20 7 11 1019.7 - 0.0
22/03:00pm 22.4 17.1 -3.8 17 10.9 E 15 22 8 12 1019.7 1019.8 0.0
22/02:30pm 22.2 17.2 -4.0 17 10.9 ESE 13 19 7 10 1020.4 - 0.0
22/02:00pm 21.9 18.0 -5.0 16 11.0 E 7 13 4 7 1020.9 - 0.0
22/01:30pm 21.3 16.6 -4.7 17 10.6 ESE 11 19 6 10 1021.2 - 0.0
22/01:00pm 20.9 16.2 -5.0 17 10.4 ESE 11 17 6 9 1021.7 - 0.0
22/12:30pm 21.3 17.5 -4.0 18 10.5 E 7 15 4 8 1022.3 - 0.0
22/12:00pm 21.1 16.9 -4.1 18 10.3 E 9 15 5 8 1022.9 1023.0 0.0
22/11:30am 19.9 15.7 -3.7 20 9.7 ENE 9 15 5 8 1023.4 - 0.0
22/11:00am 19.6 15.1 -3.3 21 9.4 NE 11 13 6 7 1023.8 - 0.0
22/10:30am 18.9 14.1 -2.7 23 9.0 ENE 13 17 7 9 1024.1 - 0.0
22/10:00am 17.0 10.9 -12.6 12 9.8 ENE 15 19 8 10 1024.3 - 0.0
22/09:30am 15.7 9.3 -11.7 14 9.1 ENE 17 20 9 11 1024.4 - 0.0
22/09:00am 12.3 7.3 -8.2 23 7.0 ENE 11 15 6 8 1024.1 1024.2 0.0
22/08:30am 9.9 5.2 -9.2 25 6.2 ENE 9 13 5 7 1023.8 - 0.0
22/08:00am 8.3 3.6 -9.6 27 5.6 E 9 11 5 6 1023.7 - 0.0
22/07:30am 5.7 0.9 -10.1 31 4.7 E 9 11 5 6 1023.3 - 0.0
22/07:00am 4.2 -0.9 -9.2 37 4.0 E 11 13 6 7 1022.8 - 0.0
22/06:30am 4.0 -1.1 -9.7 36 4.3 E 11 11 6 6 1022.6 - 0.0
22/06:00am 4.3 -0.8 -9.8 35 4.1 E 11 11 6 6 1022.2 1022.3 0.0
22/05:30am 4.9 0.2 -9.6 34 4.3 E 9 11 5 6 1021.7 - 0.0
22/05:00am 5.4 0.3 -9.6 33 4.5 ENE 11 13 6 7 1021.3 - 0.0
22/04:30am 5.2 0.1 -9.4 34 4.4 ENE 11 13 6 7 1021.1 - 0.0
22/04:00am 5.8 1.5 -8.8 34 4.5 E 7 9 4 5 1021.1 - 0.0
22/03:30am 5.8 1.1 -9.2 33 4.6 E 9 11 5 6 1021.1 - 0.0
22/03:00am 5.9 1.1 -9.9 31 4.7 E 9 11 5 6 1021.0 1021.1 0.0
22/02:30am 7.5 2.9 -8.5 31 5.1 ESE 9 9 5 5 1021.0 - 0.0
22/02:00am 8.8 3.4 -8.2 29 5.5 ESE 13 17 7 9 1021.0 - 0.0
22/01:30am 9.2 3.8 -8.3 28 5.7 ESE 13 17 7 9 1021.3 - 0.0
22/01:00am 8.1 3.5 -8.4 30 5.3 SE 9 11 5 6 1021.5 - 0.0
22/12:30am 8.6 4.6 -8.0 30 5.4 ESE 6 7 3 4 1021.7 - 0.0
22/12:00am 8.9 5.0 -6.9 32 5.3 SE 6 7 3 4 1021.7 1021.8 0.0
 
Date/Time
CST
Temp
°C
App
Temp
°C
Dew
Point
Rel
Hum
%
Delta-T
°C
Wind Press
QNH
hPa
Press
MSL
hPa
Rain
since 9 am
mm
Dir
 
Spd
km/h
Gust
km/h
Spd
kts
Gust
kts
21/11:30pm 9.8 6.7 -6.5 31 5.6 SE 2 6 1 3 1021.9 - 0.0
21/11:00pm 9.8 5.8 -6.1 32 5.5 SE 7 9 4 5 1022.0 - 0.0
21/10:30pm 10.0 5.8 -7.6 28 5.9 ESE 7 7 4 4 1022.3 - 0.0
21/10:00pm 11.8 7.9 -6.6 27 6.5 SE 6 9 3 5 1022.4 - 0.0
21/09:30pm 12.8 8.4 -5.7 27 6.7 S 9 11 5 6 1022.3 - 0.0
21/09:00pm 10.8 6.8 -7.4 27 6.2 E 6 9 3 5 1022.2 1022.3 0.0
21/08:30pm 12.9 8.8 -6.6 25 7.0 ESE 7 9 4 5 1022.0 - 0.0

Other Formats:

Comma delimited format used in spreadsheet applications
http://www.bom.gov.au/fwo/IDS60801/IDS60801.95481.axf

JavaScript Object Notation format (JSON) in row-major order
http://www.bom.gov.au/fwo/IDS60801/IDS60801.95481.json